Portada
METAR-TAF:

METAR-TAF

Aeroports :

Tuscaloosa, Alabama, Estats Units d'Amèrica

latitud: 33-12-43N, longitud: 087-36-57W, altitud: 52 m

Observació

L'informe es va fer fa 21 minuts, a les 23:53 UTC
Vent calma
Temperatura 23°C
Humitat 38%
Pressió 1014 hPa
Visibilitat: 16.1 km
Cel clar

METAR: KTCL 032353Z 00000KT 10SM CLR 23/08 A2995 RMK AO2 SLP140 T02280083 10261 20228 58005

Hora: 19:14 (00:14 UTC)

Pronòstic

L'informe es va fer fa 54 minuts, a les 23:20 UTC
Pronòstic vàlid del 04 a les 00 UTC al 04 a les 24 UTC
Vent 3 kt amb direcció variable
Visibilitat: 10 km
Cel ennuvolat a una alçada de 9000 ft

TAF: KTCL 032320Z 0400/0424 VRB03KT P6SM BKN090

Observacions i pronòstics meteorològics de més de 4000 aeroports (METAR i TAF).

Les estacions disponibles són els punts grocs i vermells al mapa.

Posi el ratolí al punt desitjat per veure el nom de l'estació.

Feu clic per veure les observacions i els pronòstics meteorològics.

Per canviar el mapa: feu clic els botons verds amb una creu de color negre per apropar; al botó verd amb un guió per allunyar la imatge; o en les fletxes verdes per a mapes adjacents.


METAR-TAF: